createdAt,value
2018-11-22T00:00:23.736Z,49.70
2018-11-22T00:01:23.729Z,49.80
2018-11-22T00:02:23.725Z,51.50
2018-11-22T00:03:23.715Z,47.60
2018-11-22T00:04:23.749Z,50.20
2018-11-22T00:05:23.702Z,51.70
2018-11-22T00:06:23.697Z,46.40
2018-11-22T00:07:23.689Z,46.00
2018-11-22T00:08:23.679Z,50.20
2018-11-22T00:09:23.706Z,49.60
2018-11-22T00:10:23.668Z,49.10
2018-11-22T00:11:23.666Z,50.80
2018-11-22T00:12:23.649Z,47.80
2018-11-22T00:13:23.639Z,43.30
2018-11-22T00:14:23.678Z,45.30
2018-11-22T00:15:23.632Z,44.40
2018-11-22T00:16:23.624Z,38.30
2018-11-22T00:17:23.624Z,42.80
2018-11-22T00:18:23.608Z,46.10
2018-11-22T00:19:23.640Z,49.50
2018-11-22T00:20:23.596Z,39.80
2018-11-22T00:21:23.592Z,37.60
2018-11-22T00:22:23.584Z,49.60
2018-11-22T00:23:23.576Z,45.80
2018-11-22T00:24:23.604Z,43.70
2018-11-22T00:25:23.561Z,45.50
2018-11-22T00:26:23.555Z,47.10
2018-11-22T00:27:23.547Z,45.50
2018-11-22T00:28:23.541Z,45.60
2018-11-22T00:29:23.568Z,48.70
2018-11-22T00:30:23.523Z,44.50
2018-11-22T00:31:23.518Z,44.10
2018-11-22T00:32:23.511Z,40.00
2018-11-22T00:33:23.500Z,48.00
2018-11-22T00:34:23.535Z,43.90
2018-11-22T00:35:23.492Z,42.90
2018-11-22T00:36:23.483Z,45.40
2018-11-22T00:37:23.475Z,49.10
2018-11-22T00:38:23.470Z,42.50
2018-11-22T00:39:23.498Z,45.60
2018-11-22T00:40:23.454Z,42.50
2018-11-22T00:41:23.444Z,45.10
2018-11-22T00:42:23.441Z,44.20
2018-11-22T00:43:23.435Z,45.70
2018-11-22T00:44:23.458Z,46.00
2018-11-22T00:45:23.419Z,45.70
2018-11-22T00:46:23.417Z,46.90
2018-11-22T00:47:23.406Z,45.70
2018-11-22T00:48:23.397Z,43.50
2018-11-22T00:49:23.429Z,46.40
2018-11-22T00:50:23.385Z,47.50
2018-11-22T00:51:23.375Z,45.50
2018-11-22T00:52:23.369Z,47.00
2018-11-22T00:53:23.365Z,39.50
2018-11-22T00:54:23.392Z,45.10
2018-11-22T00:55:23.355Z,50.90
2018-11-22T00:56:23.338Z,43.80
2018-11-22T00:57:23.333Z,48.90
2018-11-22T00:58:23.365Z,48.10
2018-11-22T00:59:23.320Z,51.30
2018-11-22T01:00:23.312Z,48.50
2018-11-22T01:01:23.306Z,47.70
2018-11-22T01:02:23.300Z,48.10
2018-11-22T01:03:23.332Z,48.20
2018-11-22T01:04:23.283Z,47.10
2018-11-22T01:05:23.280Z,48.80
2018-11-22T01:06:23.274Z,45.60
2018-11-22T01:07:23.271Z,44.70
2018-11-22T01:08:23.293Z,42.20
2018-11-22T01:09:23.288Z,47.00
2018-11-22T01:10:23.243Z,45.60
2018-11-22T01:11:23.231Z,49.20
2018-11-22T01:12:23.230Z,45.10
2018-11-22T01:13:23.223Z,44.10
2018-11-22T01:14:23.252Z,50.30
2018-11-22T01:15:23.208Z,45.30
2018-11-22T01:16:23.200Z,46.00
2018-11-22T01:17:23.195Z,45.00
2018-11-22T01:18:23.220Z,43.70
2018-11-22T01:19:23.179Z,46.30
2018-11-22T01:20:23.172Z,46.10
2018-11-22T01:21:23.168Z,43.80
2018-11-22T01:22:23.159Z,45.00
2018-11-22T01:23:23.187Z,46.70
2018-11-22T01:24:23.147Z,47.40
2018-11-22T01:25:23.135Z,43.60
2018-11-22T01:26:23.133Z,40.50
2018-11-22T01:27:23.126Z,44.80
2018-11-22T01:28:23.150Z,47.00
2018-11-22T01:29:23.107Z,46.70
2018-11-22T01:30:23.102Z,46.40
2018-11-22T01:31:23.098Z,48.50
2018-11-22T01:32:23.094Z,46.60
2018-11-22T01:33:23.120Z,46.80
2018-11-22T01:34:23.074Z,46.70
2018-11-22T01:35:23.070Z,43.10
2018-11-22T01:36:23.062Z,44.10
2018-11-22T01:37:23.056Z,44.30
2018-11-22T01:38:23.082Z,48.80
2018-11-22T01:39:23.042Z,45.00
2018-11-22T01:40:23.034Z,44.60
2018-11-22T01:41:23.028Z,48.60
2018-11-22T01:42:23.022Z,45.70
2018-11-22T01:43:23.050Z,47.90
2018-11-22T01:44:23.002Z,48.70
2018-11-22T01:45:23.006Z,48.80
2018-11-22T01:46:22.994Z,50.20
2018-11-22T01:47:22.986Z,50.70
2018-11-22T01:48:23.014Z,48.70
2018-11-22T01:49:22.969Z,47.80
2018-11-22T01:50:22.961Z,47.30
2018-11-22T01:51:22.961Z,48.20
2018-11-22T01:52:22.992Z,49.70
2018-11-22T01:53:22.946Z,47.20
2018-11-22T01:54:22.937Z,51.90
2018-11-22T01:55:22.937Z,49.10
2018-11-22T01:56:22.917Z,47.90
2018-11-22T01:57:22.954Z,53.20
2018-11-22T01:58:22.909Z,47.40
2018-11-22T01:59:22.976Z,46.60
2018-11-22T02:00:22.899Z,49.20
2018-11-22T02:01:22.889Z,52.60
2018-11-22T02:02:22.918Z,54.30
2018-11-22T02:03:22.872Z,52.30
2018-11-22T02:04:22.866Z,51.20
2018-11-22T02:05:22.860Z,50.00
2018-11-22T02:06:22.855Z,46.00
2018-11-22T02:07:22.880Z,48.20
2018-11-22T02:08:22.845Z,50.20
2018-11-22T02:09:22.831Z,45.50
2018-11-22T02:10:22.861Z,53.20
2018-11-22T02:11:22.819Z,47.20
2018-11-22T02:12:22.811Z,41.70
2018-11-22T02:13:22.840Z,44.20
2018-11-22T02:14:22.799Z,47.50
2018-11-22T02:15:22.795Z,50.80
2018-11-22T02:16:22.780Z,47.80
2018-11-22T02:17:22.816Z,49.10
2018-11-22T02:18:22.771Z,54.80
2018-11-22T02:19:22.768Z,52.10
2018-11-22T02:20:22.755Z,50.00
2018-11-22T02:21:22.751Z,51.00
2018-11-22T02:22:22.779Z,50.60
2018-11-22T02:23:22.735Z,49.40
2018-11-22T02:24:22.732Z,47.90
2018-11-22T02:25:22.714Z,47.00
2018-11-22T02:26:22.723Z,50.00
2018-11-22T02:27:22.753Z,48.80
2018-11-22T02:28:22.698Z,48.60
2018-11-22T02:29:22.695Z,47.30
2018-11-22T02:30:22.725Z,45.90
2018-11-22T02:31:22.684Z,48.00
2018-11-22T02:32:22.679Z,53.10
2018-11-22T02:33:22.700Z,53.00
2018-11-22T02:34:22.658Z,54.10
2018-11-22T02:35:22.651Z,47.60
2018-11-22T02:36:22.643Z,52.70
2018-11-22T02:37:22.642Z,52.30
2018-11-22T02:38:22.666Z,54.60
2018-11-22T02:39:22.630Z,50.20
2018-11-22T02:40:22.618Z,51.80
2018-11-22T02:41:22.636Z,54.20
2018-11-22T02:42:22.598Z,59.50
2018-11-22T02:43:22.631Z,54.90
2018-11-22T02:44:22.593Z,58.40
2018-11-22T02:45:22.581Z,53.60
2018-11-22T02:46:22.574Z,53.50
2018-11-22T02:47:22.569Z,56.70
2018-11-22T02:48:22.597Z,53.80
2018-11-22T02:49:22.557Z,51.10
2018-11-22T02:50:22.549Z,57.10
2018-11-22T02:51:22.541Z,60.10
2018-11-22T02:52:22.535Z,59.60
2018-11-22T02:53:22.565Z,64.00
2018-11-22T02:54:22.522Z,64.70
2018-11-22T02:55:22.517Z,59.50
2018-11-22T02:56:22.501Z,62.60
2018-11-22T02:57:22.507Z,66.30
2018-11-22T02:58:22.533Z,64.40
2018-11-22T02:59:22.484Z,62.00
2018-11-22T03:00:22.481Z,69.50
2018-11-22T03:01:22.487Z,67.30
2018-11-22T03:02:22.480Z,65.00
2018-11-22T03:03:22.501Z,70.80
2018-11-22T03:04:22.465Z,65.20
2018-11-22T03:05:22.456Z,62.20
2018-11-22T03:06:22.448Z,64.60
2018-11-22T03:07:22.449Z,60.50
2018-11-22T03:08:22.462Z,68.80
2018-11-22T03:09:22.427Z,73.20
2018-11-22T03:10:22.424Z,68.40
2018-11-22T03:11:22.449Z,70.20
2018-11-22T03:12:22.405Z,72.20
2018-11-22T03:13:22.411Z,68.20
2018-11-22T03:14:22.425Z,74.20
2018-11-22T03:15:22.388Z,68.60
2018-11-22T03:16:22.380Z,70.10
2018-11-22T03:17:22.377Z,69.50
2018-11-22T03:18:22.369Z,70.70
2018-11-22T03:19:22.388Z,65.30
2018-11-22T03:20:22.358Z,75.40
2018-11-22T03:21:22.352Z,68.60
2018-11-22T03:22:22.339Z,78.50
2018-11-22T03:23:22.334Z,76.20
2018-11-22T03:24:22.491Z,66.20
2018-11-22T03:25:22.319Z,73.20
2018-11-22T03:26:22.314Z,74.60
2018-11-22T03:27:22.302Z,81.50
2018-11-22T03:28:22.300Z,76.10
2018-11-22T03:29:22.319Z,75.20
2018-11-22T03:30:22.284Z,77.00
2018-11-22T03:31:22.279Z,77.90
2018-11-22T03:32:22.274Z,76.80
2018-11-22T03:33:22.262Z,78.40
2018-11-22T03:34:22.289Z,77.50
2018-11-22T03:35:22.259Z,82.10
2018-11-22T03:36:22.273Z,74.60
2018-11-22T03:37:22.230Z,81.30
2018-11-22T03:38:22.230Z,79.90
2018-11-22T03:39:22.220Z,73.50
2018-11-22T03:40:22.242Z,82.30
2018-11-22T03:41:22.210Z,78.60
2018-11-22T03:42:22.202Z,75.30
2018-11-22T03:43:22.193Z,81.00
2018-11-22T03:44:22.186Z,90.70
2018-11-22T03:45:22.206Z,80.00
2018-11-22T03:46:22.173Z,82.10
2018-11-22T03:47:22.165Z,82.30
2018-11-22T03:48:22.158Z,78.60
2018-11-22T03:49:22.154Z,77.00
2018-11-22T03:50:22.177Z,87.30
2018-11-22T03:51:22.138Z,82.90
2018-11-22T03:52:22.133Z,79.90
2018-11-22T03:53:22.130Z,81.80
2018-11-22T03:54:22.118Z,75.00
2018-11-22T03:55:22.140Z,76.40
2018-11-22T03:56:22.106Z,87.60
2018-11-22T03:57:22.105Z,79.20
2018-11-22T03:58:22.089Z,71.70
2018-11-22T03:59:22.077Z,74.80
2018-11-22T04:00:22.105Z,81.70
2018-11-22T04:01:22.068Z,75.20
2018-11-22T04:02:22.057Z,77.80
2018-11-22T04:03:22.062Z,83.40
2018-11-22T04:04:22.048Z,79.70
2018-11-22T04:05:22.067Z,86.70
2018-11-22T04:06:22.032Z,78.90
2018-11-22T04:07:22.028Z,79.10
2018-11-22T04:08:22.021Z,85.60
2018-11-22T04:09:22.012Z,78.20
2018-11-22T04:10:22.032Z,86.70
2018-11-22T04:11:22.002Z,79.70
2018-11-22T04:12:21.992Z,83.20
2018-11-22T04:13:21.990Z,72.70
2018-11-22T04:14:21.976Z,78.60
2018-11-22T04:15:22.003Z,82.70
2018-11-22T04:16:21.964Z,87.40
2018-11-22T04:17:21.988Z,84.50
2018-11-22T04:18:21.951Z,83.20
2018-11-22T04:19:21.942Z,80.30
2018-11-22T04:20:21.940Z,82.00
2018-11-22T04:21:21.967Z,84.40
2018-11-22T04:22:21.927Z,78.40
2018-11-22T04:23:21.919Z,81.70
2018-11-22T04:24:21.912Z,83.60
2018-11-22T04:25:21.907Z,84.50
2018-11-22T04:26:24.101Z,77.30
2018-11-22T04:27:21.895Z,89.30
2018-11-22T04:28:21.887Z,74.10
2018-11-22T04:29:21.871Z,79.90
2018-11-22T04:30:21.873Z,76.50
2018-11-22T04:31:21.891Z,82.50
2018-11-22T04:32:21.854Z,76.50
2018-11-22T04:33:21.844Z,73.90
2018-11-22T04:34:21.843Z,78.60
2018-11-22T04:35:21.831Z,81.30
2018-11-22T04:36:21.860Z,76.40
2018-11-22T04:37:21.852Z,81.50
2018-11-22T04:38:21.815Z,77.50
2018-11-22T04:39:21.810Z,78.20
2018-11-22T04:40:21.802Z,83.30
2018-11-22T04:41:21.822Z,71.30
2018-11-22T04:42:21.790Z,82.00
2018-11-22T04:43:21.786Z,81.10
2018-11-22T04:44:21.774Z,71.20
2018-11-22T04:45:21.773Z,80.90
2018-11-22T04:46:21.789Z,75.10
2018-11-22T04:47:21.754Z,82.40
2018-11-22T04:48:21.746Z,76.80
2018-11-22T04:49:21.741Z,80.20
2018-11-22T04:50:21.734Z,79.80
2018-11-22T04:51:21.754Z,86.30
2018-11-22T04:52:21.718Z,78.00
2018-11-22T04:53:21.715Z,76.40
2018-11-22T04:54:21.707Z,81.00
2018-11-22T04:55:21.701Z,79.10
2018-11-22T04:56:21.721Z,82.90
2018-11-22T04:57:21.685Z,80.70
2018-11-22T04:58:21.690Z,73.70
2018-11-22T04:59:21.675Z,74.70
2018-11-22T05:00:21.675Z,78.40
2018-11-22T05:01:21.694Z,76.40
2018-11-22T05:02:21.682Z,80.80
2018-11-22T05:03:21.647Z,81.60
2018-11-22T05:04:22.318Z,74.50
2018-11-22T05:05:21.628Z,74.60
2018-11-22T05:06:21.625Z,74.00
2018-11-22T05:07:21.648Z,70.10
2018-11-22T05:08:21.611Z,76.80
2018-11-22T05:09:21.624Z,69.90
2018-11-22T05:10:21.604Z,73.60
2018-11-22T05:11:21.594Z,79.00
2018-11-22T05:12:21.612Z,70.90
2018-11-22T05:13:21.579Z,75.20
2018-11-22T05:14:21.576Z,77.40
2018-11-22T05:15:21.566Z,76.50
2018-11-22T05:16:21.552Z,73.90
2018-11-22T05:17:21.581Z,74.00
2018-11-22T05:18:21.544Z,73.50
2018-11-22T05:19:21.542Z,75.30
2018-11-22T05:20:21.532Z,74.10
2018-11-22T05:21:21.527Z,74.50
2018-11-22T05:22:21.547Z,74.70
2018-11-22T05:23:21.511Z,72.40
2018-11-22T05:24:21.501Z,72.30
2018-11-22T05:25:21.497Z,75.00
2018-11-22T05:26:21.492Z,78.90
2018-11-22T05:27:21.517Z,86.20
2018-11-22T05:28:21.503Z,77.10
2018-11-22T05:29:21.471Z,81.40
2018-11-22T05:30:21.467Z,87.60
2018-11-22T05:31:21.458Z,83.90
2018-11-22T05:32:21.448Z,82.90
2018-11-22T05:33:21.479Z,77.80
2018-11-22T05:34:21.438Z,83.20
2018-11-22T05:35:21.433Z,90.90
2018-11-22T05:36:21.437Z,90.90
2018-11-22T05:37:21.435Z,89.90
2018-11-22T05:38:21.439Z,95.30
2018-11-22T05:39:21.410Z,112.90
2018-11-22T05:40:21.398Z,103.10
2018-11-22T05:41:21.393Z,104.80
2018-11-22T05:42:21.383Z,102.00
2018-11-22T05:43:21.406Z,104.30
2018-11-22T05:44:21.486Z,92.50
2018-11-22T05:45:21.362Z,94.30
2018-11-22T05:46:21.357Z,99.40
2018-11-22T05:47:21.353Z,103.50
2018-11-22T05:48:21.369Z,99.10
2018-11-22T05:49:21.337Z,101.10
2018-11-22T05:50:21.330Z,96.90
2018-11-22T05:51:21.325Z,97.40
2018-11-22T05:52:21.318Z,102.60
2018-11-22T05:53:21.341Z,96.40
2018-11-22T05:54:21.306Z,95.20
2018-11-22T05:55:21.300Z,110.30
2018-11-22T05:56:21.291Z,101.10
2018-11-22T05:57:21.285Z,92.90
2018-11-22T05:58:21.304Z,104.10
2018-11-22T05:59:21.267Z,106.60
2018-11-22T06:00:21.265Z,113.50
2018-11-22T06:01:21.262Z,99.90
2018-11-22T06:02:21.253Z,91.20
2018-11-22T06:03:21.314Z,101.90
2018-11-22T06:04:21.239Z,101.80
2018-11-22T06:05:21.232Z,100.10
2018-11-22T06:06:21.230Z,104.90
2018-11-22T06:07:21.217Z,103.30
2018-11-22T06:08:21.217Z,110.90
2018-11-22T06:09:21.234Z,115.10
2018-11-22T06:10:21.198Z,111.50
2018-11-22T06:11:21.191Z,115.10
2018-11-22T06:12:21.190Z,111.70
2018-11-22T06:13:21.180Z,109.60
2018-11-22T06:14:21.200Z,117.40
2018-11-22T06:15:21.160Z,112.10
2018-11-22T06:16:21.163Z,121.10
2018-11-22T06:17:21.152Z,110.20
2018-11-22T06:18:21.150Z,104.60
2018-11-22T06:19:21.212Z,98.10
2018-11-22T06:20:21.133Z,104.70
2018-11-22T06:21:21.119Z,107.50
2018-11-22T06:22:21.120Z,117.20
2018-11-22T06:23:21.107Z,98.70
2018-11-22T06:24:21.310Z,102.90
2018-11-22T06:25:21.102Z,100.20
2018-11-22T06:26:21.091Z,111.90
2018-11-22T06:27:21.087Z,109.40
2018-11-22T06:28:21.078Z,108.50
2018-11-22T06:29:21.095Z,111.70
2018-11-22T06:30:21.097Z,103.00
2018-11-22T06:31:21.062Z,109.80
2018-11-22T06:32:21.055Z,114.70
2018-11-22T06:33:21.047Z,96.20
2018-11-22T06:34:21.047Z,106.50
2018-11-22T06:35:21.063Z,112.10
2018-11-22T06:36:21.814Z,118.10
2018-11-22T06:37:21.026Z,122.10
2018-11-22T06:38:21.003Z,104.90
2018-11-22T06:39:21.007Z,113.30
2018-11-22T06:40:21.031Z,112.50
2018-11-22T06:41:20.991Z,111.40
2018-11-22T06:42:20.991Z,100.70
2018-11-22T06:43:21.005Z,110.00
2018-11-22T06:44:20.975Z,120.70
2018-11-22T06:45:21.000Z,114.50
2018-11-22T06:46:20.962Z,107.30
2018-11-22T06:47:20.953Z,104.50
2018-11-22T06:48:20.945Z,95.70
2018-11-22T06:49:20.938Z,95.10
2018-11-22T06:50:20.968Z,104.90
2018-11-22T06:51:20.925Z,105.00
2018-11-22T06:52:20.918Z,109.40
2018-11-22T06:53:20.912Z,110.40
2018-11-22T06:54:20.910Z,108.10
2018-11-22T06:55:20.926Z,107.20
2018-11-22T06:56:21.083Z,105.10
2018-11-22T06:57:20.889Z,111.00
2018-11-22T06:58:20.880Z,107.30
2018-11-22T06:59:20.873Z,111.00
2018-11-22T07:00:20.896Z,109.50
2018-11-22T07:01:20.864Z,102.50
2018-11-22T07:02:20.857Z,106.70
2018-11-22T07:03:20.849Z,110.50
2018-11-22T07:04:20.839Z,114.60
2018-11-22T07:05:20.868Z,105.80
2018-11-22T07:06:20.828Z,105.90
2018-11-22T07:07:20.823Z,106.50
2018-11-22T07:08:20.819Z,91.80
2018-11-22T07:09:20.808Z,92.40
2018-11-22T07:10:20.831Z,97.30
2018-11-22T07:11:20.796Z,100.50
2018-11-22T07:12:20.790Z,97.70
2018-11-22T07:13:20.784Z,103.00
2018-11-22T07:14:20.775Z,104.20
2018-11-22T07:15:20.797Z,112.60
2018-11-22T07:16:20.785Z,102.80
2018-11-22T07:17:20.756Z,104.20
2018-11-22T07:18:20.753Z,109.60
2018-11-22T07:19:20.743Z,104.40
2018-11-22T07:20:20.739Z,102.00
2018-11-22T07:21:20.759Z,97.30
2018-11-22T07:22:20.723Z,104.50
2018-11-22T07:23:20.720Z,96.00
2018-11-22T07:24:20.714Z,99.60
2018-11-22T07:25:20.707Z,102.70
2018-11-22T07:26:20.726Z,100.10
2018-11-22T07:27:20.691Z,115.10
2018-11-22T07:28:20.691Z,106.30
2018-11-22T07:29:20.681Z,106.00
2018-11-22T07:30:20.678Z,112.70
2018-11-22T07:31:20.694Z,113.30
2018-11-22T07:32:20.663Z,108.90
2018-11-22T07:33:20.655Z,125.10
2018-11-22T07:34:20.649Z,117.40
2018-11-22T07:35:20.642Z,111.60
2018-11-22T07:36:20.662Z,123.30
2018-11-22T07:37:20.626Z,125.70
2018-11-22T07:38:20.623Z,122.80
2018-11-22T07:39:20.614Z,125.10
2018-11-22T07:40:20.609Z,122.30
2018-11-22T07:41:20.626Z,131.10
2018-11-22T07:42:20.598Z,122.40
2018-11-22T07:43:20.589Z,120.80
2018-11-22T07:44:20.586Z,128.40
2018-11-22T07:45:20.603Z,129.40
2018-11-22T07:46:20.574Z,136.80
2018-11-22T07:47:20.593Z,133.00
2018-11-22T07:48:20.556Z,133.20
2018-11-22T07:49:20.553Z,119.60
2018-11-22T07:50:20.545Z,130.60
2018-11-22T07:51:20.538Z,130.80
2018-11-22T07:52:20.564Z,123.40
2018-11-22T07:53:20.528Z,133.20
2018-11-22T07:54:20.522Z,134.80
2018-11-22T07:55:20.513Z,132.00
2018-11-22T07:56:20.541Z,130.50
2018-11-22T07:57:20.528Z,133.30
2018-11-22T07:58:20.492Z,135.60
2018-11-22T07:59:20.489Z,127.10
2018-11-22T08:00:20.497Z,123.10
2018-11-22T08:01:20.471Z,122.70
2018-11-22T08:02:20.501Z,118.40
2018-11-22T08:03:20.462Z,134.40
2018-11-22T08:04:20.456Z,128.20
2018-11-22T08:05:20.452Z,123.10
2018-11-22T08:06:20.445Z,127.00
2018-11-22T08:07:20.466Z,131.40
2018-11-22T08:08:20.432Z,126.10
2018-11-22T08:09:20.428Z,112.80
2018-11-22T08:10:20.419Z,114.80
2018-11-22T08:11:20.407Z,115.60
2018-11-22T08:12:25.883Z,111.50
2018-11-22T08:13:20.397Z,112.80
2018-11-22T08:14:20.391Z,107.70
2018-11-22T08:15:20.384Z,102.60
2018-11-22T08:16:20.380Z,112.20
2018-11-22T08:17:20.403Z,110.90
2018-11-22T08:18:20.367Z,107.60
2018-11-22T08:19:20.364Z,113.10
2018-11-22T08:20:20.355Z,112.80
2018-11-22T08:21:20.375Z,109.70
2018-11-22T08:22:20.346Z,105.70
2018-11-22T08:23:20.364Z,110.70
2018-11-22T08:24:20.333Z,110.50
2018-11-22T08:25:20.323Z,102.20
2018-11-22T08:26:20.325Z,97.00
2018-11-22T08:27:20.311Z,46.20
2018-11-22T08:28:20.345Z,88.40
2018-11-22T08:29:20.299Z,109.40
2018-11-22T08:30:20.295Z,103.10
2018-11-22T08:31:20.289Z,100.10
2018-11-22T08:32:20.284Z,88.00
2018-11-22T08:33:20.302Z,105.50
2018-11-22T08:34:20.273Z,97.00
2018-11-22T08:35:20.261Z,111.60
2018-11-22T08:36:20.261Z,91.90
2018-11-22T08:37:20.250Z,100.50
2018-11-22T08:38:20.270Z,94.10
2018-11-22T08:39:20.237Z,103.40
2018-11-22T08:40:20.231Z,85.80
2018-11-22T08:41:20.229Z,93.00
2018-11-22T08:42:20.222Z,88.10
2018-11-22T08:43:20.241Z,92.50
2018-11-22T08:44:20.205Z,111.10
2018-11-22T08:45:20.201Z,98.90
2018-11-22T08:46:20.193Z,116.60
2018-11-22T08:47:20.190Z,102.10
2018-11-22T08:48:20.211Z,98.60
2018-11-22T08:49:20.178Z,77.00
2018-11-22T08:50:20.169Z,90.50
2018-11-22T08:51:20.193Z,98.60
2018-11-22T08:52:20.158Z,94.90
2018-11-22T08:53:20.153Z,100.70
2018-11-22T08:54:20.182Z,91.20
2018-11-22T08:55:20.141Z,93.20
2018-11-22T08:56:20.130Z,95.00
2018-11-22T08:57:20.129Z,94.80
2018-11-22T08:58:20.122Z,89.60
2018-11-22T08:59:20.146Z,87.90
2018-11-22T09:00:20.112Z,90.70
2018-11-22T09:01:20.105Z,86.10
2018-11-22T09:02:20.100Z,91.90
2018-11-22T09:03:20.096Z,95.60
2018-11-22T09:04:21.175Z,100.10
2018-11-22T09:05:20.084Z,108.10
2018-11-22T09:06:20.075Z,100.00
2018-11-22T09:07:20.075Z,99.90
2018-11-22T09:08:20.065Z,110.20
2018-11-22T09:09:20.059Z,104.90
2018-11-22T09:10:20.079Z,107.30
2018-11-22T09:11:20.047Z,97.20
2018-11-22T09:12:20.035Z,88.40
2018-11-22T09:13:20.031Z,83.60
2018-11-22T09:14:20.023Z,85.70
2018-11-22T09:15:20.047Z,92.40
2018-11-22T09:16:20.006Z,91.50
2018-11-22T09:17:20.011Z,92.70
2018-11-22T09:18:20.009Z,97.00
2018-11-22T09:19:19.995Z,98.50
2018-11-22T09:20:20.019Z,87.90
2018-11-22T09:21:19.982Z,89.50
2018-11-22T09:22:19.980Z,85.50
2018-11-22T09:23:19.968Z,73.10
2018-11-22T09:24:24.096Z,85.40
2018-11-22T09:25:19.991Z,64.00
2018-11-22T09:26:19.951Z,70.80
2018-11-22T09:27:19.950Z,87.30
2018-11-22T09:28:19.950Z,97.30
2018-11-22T09:29:19.963Z,97.90
2018-11-22T09:30:19.934Z,93.60
2018-11-22T09:31:19.926Z,65.70
2018-11-22T09:32:19.950Z,89.50
2018-11-22T09:33:19.926Z,91.00
2018-11-22T09:34:19.909Z,88.60
2018-11-22T09:35:19.975Z,93.30
2018-11-22T09:36:19.892Z,102.90
2018-11-22T09:37:19.897Z,87.10
2018-11-22T09:38:19.890Z,93.60
2018-11-22T09:39:19.876Z,88.60
2018-11-22T09:40:19.904Z,93.20
2018-11-22T09:41:19.872Z,85.10
2018-11-22T09:42:19.913Z,83.20
2018-11-22T09:43:19.860Z,86.50
2018-11-22T09:44:19.856Z,82.80
2018-11-22T09:45:19.874Z,74.10
2018-11-22T09:46:19.843Z,72.00
2018-11-22T09:47:19.839Z,72.40
2018-11-22T09:48:19.836Z,68.10
2018-11-22T09:49:19.835Z,66.50
2018-11-22T09:50:19.857Z,60.90
2018-11-22T09:51:19.832Z,51.90
2018-11-22T09:52:19.812Z,48.50
2018-11-22T09:53:19.812Z,45.70
2018-11-22T09:54:19.803Z,48.00
2018-11-22T09:55:19.827Z,45.10
2018-11-22T09:56:19.794Z,51.90
2018-11-22T09:57:19.801Z,53.50
2018-11-22T09:58:19.788Z,47.50
2018-11-22T09:59:19.836Z,46.70
2018-11-22T10:00:19.799Z,46.90
2018-11-22T10:01:19.771Z,47.90
2018-11-22T10:02:19.767Z,55.00
2018-11-22T10:03:19.767Z,58.10
2018-11-22T10:04:19.760Z,66.70
2018-11-22T10:05:19.871Z,65.50
2018-11-22T10:06:19.751Z,68.40
2018-11-22T10:07:19.746Z,67.00
2018-11-22T10:08:19.759Z,69.20
2018-11-22T10:09:19.755Z,66.70
2018-11-22T10:10:19.762Z,65.30
2018-11-22T10:11:19.729Z,59.30
2018-11-22T10:12:19.746Z,56.70
2018-11-22T10:13:19.718Z,52.80
2018-11-22T10:14:19.722Z,54.70
2018-11-22T10:15:19.742Z,44.50
2018-11-22T10:16:19.710Z,41.80
2018-11-22T10:17:19.701Z,41.70
2018-11-22T10:18:19.702Z,36.80
2018-11-22T10:19:19.704Z,37.60
2018-11-22T10:20:19.726Z,33.00
2018-11-22T10:21:19.692Z,35.20
2018-11-22T10:22:19.716Z,37.20
2018-11-22T10:23:19.682Z,33.40
2018-11-22T10:24:19.731Z,43.20
2018-11-22T10:25:19.697Z,41.00
2018-11-22T10:26:19.672Z,49.50
2018-11-22T10:27:19.665Z,53.10
2018-11-22T10:28:19.664Z,40.70
2018-11-22T10:29:19.690Z,40.40
2018-11-22T10:30:19.710Z,45.20
2018-11-22T10:31:19.712Z,40.70
2018-11-22T10:32:19.713Z,45.00
2018-11-22T10:33:19.639Z,45.70
2018-11-22T10:34:19.629Z,45.70
2018-11-22T10:35:19.708Z,49.40
2018-11-22T10:36:19.661Z,50.90
2018-11-22T10:37:19.616Z,55.70
2018-11-22T10:38:19.639Z,54.60
2018-11-22T10:40:11.762Z,43.10
2018-11-22T10:41:11.373Z,42.70
2018-11-22T10:42:11.509Z,40.00
2018-11-22T10:43:11.399Z,43.50
2018-11-22T10:44:11.818Z,46.10
2018-11-22T10:45:11.377Z,44.20
2018-11-22T10:46:11.355Z,51.60
2018-11-22T10:47:11.343Z,47.00
2018-11-22T10:48:11.392Z,46.50
2018-11-22T10:49:11.387Z,49.70
2018-11-22T10:50:11.413Z,44.20
2018-11-22T10:51:11.340Z,44.60
2018-11-22T10:52:11.345Z,37.40
2018-11-22T10:53:11.351Z,40.00
2018-11-22T10:54:11.344Z,37.40
2018-11-22T10:55:11.312Z,43.10
2018-11-22T10:56:11.343Z,41.80
2018-11-22T10:57:11.305Z,40.30
2018-11-22T10:58:11.296Z,43.90
2018-11-22T10:59:11.301Z,39.70
2018-11-22T11:00:11.435Z,39.00
2018-11-22T11:01:11.318Z,44.50
2018-11-22T11:02:11.294Z,40.50
2018-11-22T11:03:11.281Z,41.70
2018-11-22T11:04:11.277Z,42.40
2018-11-22T11:05:11.309Z,43.30
2018-11-22T11:06:11.274Z,43.30
2018-11-22T11:07:11.264Z,43.10
2018-11-22T11:08:11.290Z,42.20
2018-11-22T11:09:11.252Z,43.90
2018-11-22T11:10:11.249Z,25.10
2018-11-22T11:11:11.279Z,39.80
2018-11-22T11:12:11.248Z,45.60
2018-11-22T11:13:11.242Z,47.60
2018-11-22T11:14:11.234Z,50.10
2018-11-22T11:15:11.232Z,45.10
2018-11-22T11:16:11.256Z,47.40
2018-11-22T11:17:11.229Z,45.50
2018-11-22T11:18:11.221Z,47.20
2018-11-22T11:19:11.218Z,46.90
2018-11-22T11:20:11.211Z,52.80
2018-11-22T11:21:11.238Z,43.10
2018-11-22T11:22:11.207Z,47.90
2018-11-22T11:23:11.204Z,49.20
2018-11-22T11:24:11.204Z,50.40
2018-11-22T11:25:11.193Z,44.60
2018-11-22T11:26:11.216Z,49.60
2018-11-22T11:27:11.179Z,51.90
2018-11-22T11:28:11.184Z,52.50
2018-11-22T11:29:12.801Z,56.80
2018-11-22T11:30:11.171Z,50.70
2018-11-22T11:31:11.202Z,57.00
2018-11-22T11:32:11.171Z,52.40
2018-11-22T11:33:11.159Z,57.90
2018-11-22T11:34:11.155Z,65.00
2018-11-22T11:35:11.152Z,66.10
2018-11-22T11:36:14.100Z,57.80
2018-11-22T11:37:11.143Z,59.60
2018-11-22T11:38:11.135Z,63.60
2018-11-22T11:39:11.131Z,56.40
2018-11-22T11:40:11.315Z,55.10
2018-11-22T11:41:11.154Z,50.10
2018-11-22T11:42:11.121Z,58.10
2018-11-22T11:43:11.127Z,63.90
2018-11-22T11:44:11.113Z,63.60
2018-11-22T11:45:11.114Z,58.30
2018-11-22T11:46:11.134Z,58.90
2018-11-22T11:47:11.106Z,62.00
2018-11-22T11:48:11.104Z,60.70
2018-11-22T11:49:11.122Z,58.90
2018-11-22T11:50:11.082Z,61.90
2018-11-22T11:51:11.115Z,69.50
2018-11-22T11:52:11.083Z,57.20
2018-11-22T11:53:11.074Z,59.40
2018-11-22T11:54:11.073Z,57.20
2018-11-22T11:55:11.094Z,62.30
2018-11-22T11:56:11.057Z,56.40
2018-11-22T11:57:11.054Z,57.20
2018-11-22T11:58:11.046Z,53.50
2018-11-22T11:59:11.079Z,55.40
2018-11-22T12:00:11.042Z,58.00
2018-11-22T12:01:11.060Z,62.90
2018-11-22T12:02:15.224Z,58.90
2018-11-22T12:03:11.029Z,66.60
2018-11-22T12:04:11.026Z,57.60
2018-11-22T12:05:11.018Z,61.40
2018-11-22T12:06:11.033Z,59.70
2018-11-22T12:07:11.001Z,58.10
2018-11-22T12:08:10.998Z,58.60
2018-11-22T12:09:10.997Z,60.60
2018-11-22T12:10:10.989Z,54.10
2018-11-22T12:11:11.014Z,57.30
2018-11-22T12:12:10.980Z,58.20
2018-11-22T12:13:10.977Z,57.70
2018-11-22T12:14:10.976Z,55.50
2018-11-22T12:15:10.971Z,56.60
2018-11-22T12:16:10.989Z,55.10
2018-11-22T12:17:10.963Z,52.70
2018-11-22T12:18:10.952Z,51.80
2018-11-22T12:19:10.949Z,55.00
2018-11-22T12:20:10.967Z,55.20
2018-11-22T12:21:10.933Z,48.50
2018-11-22T12:22:10.928Z,55.20
2018-11-22T12:23:10.926Z,56.30
2018-11-22T12:24:10.952Z,50.10
2018-11-22T12:25:10.916Z,50.40
2018-11-22T12:26:10.941Z,54.40
2018-11-22T12:27:10.904Z,53.40
2018-11-22T12:28:10.904Z,56.70
2018-11-22T12:29:10.897Z,47.10
2018-11-22T12:30:10.890Z,55.40
2018-11-22T12:31:10.912Z,58.30
2018-11-22T12:32:10.876Z,56.20
2018-11-22T12:33:10.879Z,66.00
2018-11-22T12:34:10.868Z,61.20
2018-11-22T12:35:10.872Z,61.80
2018-11-22T12:36:10.885Z,60.80
2018-11-22T12:37:10.857Z,72.40
2018-11-22T12:38:10.861Z,73.20
2018-11-22T12:39:10.842Z,61.50
2018-11-22T12:40:10.867Z,68.60
2018-11-22T12:41:10.857Z,75.60
2018-11-22T12:42:10.833Z,75.00
2018-11-22T12:43:10.835Z,78.70
2018-11-22T12:44:10.817Z,75.50
2018-11-22T12:45:10.815Z,76.70
2018-11-22T12:46:10.838Z,75.70
2018-11-22T12:47:10.800Z,71.70
2018-11-22T12:48:10.795Z,77.50